Time;durP1;ratioP1;P1;durP2;ratioP2;P2;SDS_P1;SDS_P2;PMS_P1;PMS_P2;Temp;Humidity;BMP_temperature;BMP_pressure;BME280_temperature;BME280_humidity;BME280_pressure;Samples;Min_cycle;Max_cycle;Signal;HPM_P1;HPM_P2
2024/02/27 00:04:32;;;;;;;9.90;8.88;;;;;;;7.02;100.00;97832.75;15295348;19;20098;-47
2024/02/27 00:10:00;;;;;;;10.38;9.27;;;;;;;6.95;100.00;97847.75;15287327;19;20026;-49
2024/02/27 00:15:25;;;;;;;9.77;8.77;;;;;;;6.92;100.00;97848.06;15289915;19;20021;-47
2024/02/27 00:20:50;;;;;;;10.13;9.13;;;;;;;6.90;100.00;97872.31;15286884;19;20010;-47
2024/02/27 00:26:18;;;;;;;12.77;10.20;;;;;;;6.79;100.00;97894.78;15289323;19;20347;-48
2024/02/27 00:31:43;;;;;;;12.38;9.50;;;;;;;6.72;100.00;97920.47;15285351;19;20028;-48
2024/02/27 00:37:08;;;;;;;9.98;8.90;;;;;;;6.69;100.00;97909.25;15285541;19;20014;-48
2024/02/27 00:42:35;;;;;;;9.10;8.18;;;;;;;6.68;100.00;97904.88;15287580;19;20548;-47
2024/02/27 00:47:59;;;;;;;9.82;7.63;;;;;;;6.69;100.00;97885.97;15289753;19;20057;-50
2024/02/27 00:53:24;;;;;;;10.02;8.00;;;;;;;6.73;100.00;97871.31;15284240;19;20082;-49
2024/02/27 00:58:51;;;;;;;9.38;7.57;;;;;;;6.69;100.00;97879.78;15287304;19;20019;-47
2024/02/27 01:04:16;;;;;;;8.90;6.60;;;;;;;6.64;100.00;97872.22;15291014;19;20022;-50
2024/02/27 01:09:40;;;;;;;8.43;6.45;;;;;;;6.66;100.00;97864.03;15284342;19;20018;-47
2024/02/27 01:15:08;;;;;;;9.60;7.20;;;;;;;6.63;100.00;97865.19;15284749;19;20085;-47
2024/02/27 01:20:32;;;;;;;9.05;6.82;;;;;;;6.58;100.00;97867.44;15282938;19;20011;-49
2024/02/27 01:25:57;;;;;;;7.70;6.43;;;;;;;6.51;100.00;97882.44;15285185;19;20336;-47
2024/02/27 01:31:25;;;;;;;10.25;7.20;;;;;;;6.41;100.00;97867.25;15283829;19;20557;-50
2024/02/27 01:36:50;;;;;;;8.43;6.70;;;;;;;6.36;100.00;97880.22;15284836;19;20022;-50
2024/02/27 01:42:15;;;;;;;8.48;6.38;;;;;;;6.32;100.00;97901.09;15279183;19;20018;-50
2024/02/27 01:47:43;;;;;;;7.72;5.90;;;;;;;6.33;100.00;97885.88;15285564;19;20043;-48
2024/02/27 01:53:08;;;;;;;6.35;5.50;;;;;;;6.31;100.00;97903.91;15281277;19;20046;-49
2024/02/27 01:58:33;;;;;;;6.65;5.93;;;;;;;6.35;100.00;97893.78;15287206;19;20476;-50
2024/02/27 02:04:01;;;;;;;8.10;5.80;;;;;;;6.33;100.00;97885.88;15290028;19;20033;-47
2024/02/27 02:09:26;;;;;;;6.35;5.30;;;;;;;6.21;100.00;97889.72;15287951;19;20078;-48
2024/02/27 02:14:52;;;;;;;6.32;5.45;;;;;;;6.16;100.00;97891.03;15293822;19;20023;-48
2024/02/27 02:20:43;;;;;;;6.05;5.20;;;;;;;6.15;100.00;97893.81;15296890;19;20025;-50
2024/02/27 02:26:08;;;;;;;5.68;4.45;;;;;;;6.12;100.00;97897.66;15297144;19;20086;-51
2024/02/27 02:31:33;;;;;;;4.95;4.32;;;;;;;6.11;100.00;97887.94;15292671;19;20057;-49
2024/02/27 02:37:00;;;;;;;4.25;3.78;;;;;;;6.03;100.00;97903.88;15296401;19;20014;-47
2024/02/27 02:42:25;;;;;;;5.65;4.25;;;;;;;6.00;100.00;97912.19;15294077;19;20102;-49
2024/02/27 02:47:49;;;;;;;5.18;4.07;;;;;;;6.03;100.00;97927.94;15291592;19;20025;-47
2024/02/27 02:53:17;;;;;;;4.53;3.60;;;;;;;6.03;100.00;97927.09;15292890;19;20029;-47
2024/02/27 02:58:41;;;;;;;3.90;3.30;;;;;;;5.95;100.00;97930.44;15296850;19;20014;-47
2024/02/27 03:04:06;;;;;;;4.72;3.67;;;;;;;5.90;100.00;97944.25;15300310;19;20025;-48
2024/02/27 03:09:33;;;;;;;4.18;3.53;;;;;;;5.81;100.00;97940.63;15297456;19;20025;-48
2024/02/27 03:14:59;;;;;;;4.28;3.30;;;;;;;5.81;100.00;97945.97;15294671;19;20489;-49
2024/02/27 03:20:24;;;;;;;3.78;2.95;;;;;;;5.82;100.00;97946.78;15291734;19;20477;-47
2024/02/27 03:25:51;;;;;;;3.97;3.05;;;;;;;5.79;100.00;97955.94;15292103;19;20082;-47
2024/02/27 03:31:15;;;;;;;3.63;2.90;;;;;;;5.70;100.00;97954.13;15293390;19;20489;-47
2024/02/27 03:36:40;;;;;;;3.38;2.70;;;;;;;5.65;100.00;97951.88;15292372;19;20021;-48
2024/02/27 03:42:07;;;;;;;4.05;2.72;;;;;;;5.52;100.00;97946.81;15290187;19;20018;-47
2024/02/27 03:47:32;;;;;;;3.28;2.67;;;;;;;5.51;100.00;97947.81;15293629;19;20074;-47
2024/02/27 03:52:56;;;;;;;4.20;3.78;;;;;;;5.38;100.00;97950.75;15288562;19;20029;-49
2024/02/27 03:58:24;;;;;;;4.60;3.08;;;;;;;5.21;100.00;97952.31;15292588;19;20493;-48
2024/02/27 04:03:48;;;;;;;3.35;3.05;;;;;;;5.08;100.00;97943.69;15293154;19;20021;-48
2024/02/27 04:09:13;;;;;;;3.20;2.90;;;;;;;4.89;100.00;97957.84;15292143;19;20057;-52
2024/02/27 04:14:40;;;;;;;3.38;2.40;;;;;;;4.68;100.00;97964.13;15293371;19;20019;-47
2024/02/27 04:20:05;;;;;;;3.10;2.80;;;;;;;4.48;100.00;97968.53;15294787;19;20014;-48
2024/02/27 04:25:31;;;;;;;5.05;2.90;;;;;;;4.38;100.00;97979.16;15288440;19;20024;-46
2024/02/27 04:30:59;;;;;;;2.90;2.60;;;;;;;4.32;100.00;97975.19;15280140;19;162637;-48
2024/02/27 04:36:23;;;;;;;2.75;2.55;;;;;;;4.27;100.00;97987.22;15290017;19;20029;-46
2024/02/27 04:41:48;;;;;;;2.97;2.78;;;;;;;4.24;100.00;97984.81;15286346;19;20345;-49
2024/02/27 04:47:15;;;;;;;4.40;2.65;;;;;;;4.17;100.00;97992.53;15291124;19;20081;-51
2024/02/27 04:52:40;;;;;;;2.95;2.42;;;;;;;4.08;100.00;97990.63;15279926;19;20028;-49
2024/02/27 04:58:05;;;;;;;3.67;2.70;;;;;;;4.03;100.00;97990.19;15285112;19;20353;-49
2024/02/27 05:03:32;;;;;;;4.00;2.92;;;;;;;4.00;100.00;98001.94;15290912;19;20074;-49
2024/02/27 05:08:56;;;;;;;3.88;2.70;;;;;;;4.00;100.00;98020.59;15288389;19;20093;-48
2024/02/27 05:14:21;;;;;;;2.85;2.55;;;;;;;3.97;100.00;98024.38;15279934;19;20085;-48
2024/02/27 05:19:48;;;;;;;4.80;3.03;;;;;;;3.89;100.00;98016.19;15287549;19;20019;-50
2024/02/27 05:25:14;;;;;;;3.22;2.92;;;;;;;3.84;100.00;98023.72;15285091;19;20032;-47
2024/02/27 05:30:38;;;;;;;3.03;2.72;;;;;;;3.83;100.00;98036.19;15284420;19;20022;-48
2024/02/27 05:36:06;;;;;;;3.10;2.88;;;;;;;3.89;100.00;98031.31;15287231;19;20082;-49
2024/02/27 05:41:30;;;;;;;6.18;2.90;;;;;;;3.89;100.00;98037.50;15278989;19;20015;-49
2024/02/27 05:46:55;;;;;;;3.00;2.60;;;;;;;3.89;100.00;98048.16;15291363;19;20026;-50
2024/02/27 05:52:29;;;;;;;3.20;2.65;;;;;;;3.93;100.00;98062.94;15294015;19;20025;-49
2024/02/27 05:57:53;;;;;;;3.10;2.80;;;;;;;3.94;100.00;98067.25;15298645;19;20024;-49
2024/02/27 06:03:18;;;;;;;5.65;2.90;;;;;;;3.95;100.00;98068.97;15300624;19;20069;-49
2024/02/27 06:08:45;;;;;;;3.83;3.08;;;;;;;3.95;100.00;98089.44;15299295;19;20021;-48
2024/02/27 06:14:10;;;;;;;4.18;3.22;;;;;;;3.89;100.00;98088.13;15290934;19;20093;-49
2024/02/27 06:19:43;;;;;;;4.32;3.45;;;;;;;3.84;100.00;98091.19;15299363;19;20018;-49
2024/02/27 06:25:11;;;;;;;3.70;3.40;;;;;;;3.81;100.00;98102.09;15294525;19;20025;-48
2024/02/27 06:30:35;;;;;;;3.75;3.38;;;;;;;3.81;100.00;98106.59;15294681;19;20029;-48
2024/02/27 06:36:00;;;;;;;3.65;3.28;;;;;;;3.80;100.00;98099.56;15294614;19;20361;-50
2024/02/27 06:41:27;;;;;;;3.72;3.25;;;;;;;3.80;100.00;98104.88;15294597;19;20017;-50
2024/02/27 06:46:52;;;;;;;4.75;3.40;;;;;;;3.78;100.00;98120.97;15293741;19;20024;-48
2024/02/27 06:52:23;;;;;;;4.05;3.72;;;;;;;3.69;100.00;98127.06;15291470;19;20662;-47
2024/02/27 06:57:50;;;;;;;5.00;3.88;;;;;;;3.69;100.00;98132.41;15290172;19;20020;-48
2024/02/27 07:03:15;;;;;;;5.55;5.03;;;;;;;3.64;100.00;98146.09;15295374;19;20014;-48
2024/02/27 07:08:41;;;;;;;5.72;4.90;;;;;;;3.63;100.00;98155.06;15294801;19;20018;-49
2024/02/27 07:14:08;;;;;;;5.93;4.93;;;;;;;3.65;100.00;98146.94;15286446;19;20022;-49
2024/02/27 07:19:33;;;;;;;7.45;6.45;;;;;;;3.66;100.00;98160.16;15295607;19;20355;-48
2024/02/27 07:24:57;;;;;;;7.53;6.05;;;;;;;3.66;100.00;98157.47;15290599;19;20015;-48
2024/02/27 07:30:24;;;;;;;6.70;5.70;;;;;;;3.76;100.00;98159.41;15291298;19;20399;-49
2024/02/27 07:35:49;;;;;;;11.18;9.95;;;;;;;3.80;100.00;98172.34;15286113;19;20634;-50
2024/02/27 07:41:14;;;;;;;12.20;11.00;;;;;;;3.78;100.00;98178.78;15289011;19;20375;-48
2024/02/27 07:46:42;;;;;;;15.43;12.40;;;;;;;3.75;100.00;98179.00;15290007;19;20068;-49
2024/02/27 07:52:13;;;;;;;13.80;12.40;;;;;;;3.70;100.00;98182.88;14775393;19;10000670;-49
2024/02/27 07:57:38;;;;;;;13.67;12.37;;;;;;;3.72;100.00;98187.25;15291894;19;20360;-48
2024/02/27 08:03:05;;;;;;;14.20;12.90;;;;;;;3.74;100.00;98198.63;15295982;19;20620;-48
2024/02/27 08:08:31;;;;;;;14.73;13.23;;;;;;;3.76;100.00;98202.88;15282019;19;20097;-51
2024/02/27 08:13:55;;;;;;;15.35;13.85;;;;;;;3.80;100.00;98203.50;15284760;19;20028;-49
2024/02/27 08:19:23;;;;;;;16.90;15.20;;;;;;;3.84;100.00;98200.44;15293046;19;20538;-52
2024/02/27 08:24:48;;;;;;;16.15;14.60;;;;;;;3.89;100.00;98205.41;15292027;19;20059;-52
2024/02/27 08:30:13;;;;;;;16.17;14.68;;;;;;;3.90;100.00;98212.44;15298435;19;20022;-52
2024/02/27 08:35:41;;;;;;;16.63;15.02;;;;;;;3.95;100.00;98212.88;15286887;19;20025;-48
2024/02/27 08:41:06;;;;;;;16.77;15.13;;;;;;;3.92;100.00;98213.16;15284662;19;20028;-49
2024/02/27 08:46:31;;;;;;;17.70;15.90;;;;;;;3.95;100.00;98222.72;15279709;19;20014;-48
2024/02/27 08:52:06;;;;;;;16.42;14.82;;;;;;;3.95;100.00;98223.53;15281295;19;20014;-48
2024/02/27 08:57:31;;;;;;;15.40;13.95;;;;;;;4.00;100.00;98218.69;15287223;19;20018;-49
2024/02/27 09:02:55;;;;;;;15.15;13.32;;;;;;;4.08;100.00;98212.75;15291904;19;20014;-50
2024/02/27 09:08:23;;;;;;;15.30;13.77;;;;;;;4.10;100.00;98204.63;15287985;19;20404;-49
2024/02/27 09:13:48;;;;;;;19.40;15.75;;;;;;;4.10;100.00;98200.16;15281702;19;20019;-48
2024/02/27 09:19:13;;;;;;;18.42;16.52;;;;;;;4.11;100.00;98192.97;15288162;19;20015;-48
2024/02/27 09:24:40;;;;;;;19.10;16.30;;;;;;;4.20;100.00;98200.22;15299239;19;20018;-48
2024/02/27 09:30:06;;;;;;;18.83;16.35;;;;;;;4.16;100.00;98209.47;15308311;19;20014;-48
2024/02/27 09:35:30;;;;;;;20.15;16.42;;;;;;;4.22;100.00;98224.09;15292293;19;20495;-48
2024/02/27 09:40:58;;;;;;;18.73;16.83;;;;;;;4.20;100.00;98236.72;15298208;19;20033;-49
2024/02/27 09:46:24;;;;;;;17.58;15.73;;;;;;;4.24;100.00;98233.66;15041258;19;5001916;-49
2024/02/27 09:51:57;;;;;;;17.90;16.10;;;;;;;4.28;100.00;98228.91;15293465;19;20415;-49
2024/02/27 09:57:24;;;;;;;18.77;16.73;;;;;;;4.32;100.00;98228.53;15297740;19;20031;-49
2024/02/27 10:02:50;;;;;;;18.05;16.13;;;;;;;4.36;100.00;98246.97;15302663;19;20014;-48
2024/02/27 10:08:24;;;;;;;18.08;16.23;;;;;;;4.39;100.00;98244.06;15298641;19;20018;-48
2024/02/27 10:13:51;;;;;;;18.13;16.25;;;;;;;4.47;100.00;98239.75;15292346;19;20019;-49
2024/02/27 10:19:16;;;;;;;17.40;15.60;;;;;;;4.47;100.00;98252.25;15294882;19;20014;-47
2024/02/27 10:24:40;;;;;;;15.73;14.23;;;;;;;4.45;100.00;98251.53;15295367;19;20034;-48
2024/02/27 10:30:09;;;;;;;18.05;16.08;;;;;;;4.48;100.00;98254.78;15303713;19;20343;-48
2024/02/27 10:35:33;;;;;;;17.13;15.23;;;;;;;4.48;100.00;98256.63;15289607;19;20110;-48
2024/02/27 10:41:06;;;;;;;19.55;17.55;;;;;;;4.45;100.00;98255.06;15293324;19;20015;-46
2024/02/27 10:46:33;;;;;;;18.25;16.27;;;;;;;4.44;100.00;98256.03;15294876;19;20018;-48
2024/02/27 10:52:09;;;;;;;18.13;16.33;;;;;;;4.51;100.00;98261.72;15291998;19;20463;-47
2024/02/27 10:57:36;;;;;;;18.27;16.45;;;;;;;4.43;100.00;98264.16;15293554;19;20029;-49
2024/02/27 11:03:04;;;;;;;17.45;15.65;;;;;;;4.46;100.00;98274.56;15299197;19;20482;-50
2024/02/27 11:08:30;;;;;;;17.85;15.57;;;;;;;4.43;100.00;98273.00;15295254;19;20546;-52
2024/02/27 11:13:58;;;;;;;18.52;16.52;;;;;;;4.36;100.00;98279.81;15288403;19;20024;-49
2024/02/27 11:19:28;;;;;;;21.25;18.05;;;;;;;4.29;100.00;98274.13;15295238;19;20094;-49
2024/02/27 11:24:54;;;;;;;21.70;19.00;;;;;;;4.20;100.00;98266.88;15293704;19;20006;-49
2024/02/27 11:30:20;;;;;;;21.95;18.88;;;;;;;4.26;100.00;98263.72;15298641;19;20014;-48
2024/02/27 11:35:48;;;;;;;23.60;18.80;;;;;;;4.38;100.00;98271.69;15285692;19;20635;-48
2024/02/27 11:41:18;;;;;;;23.05;19.25;;;;;;;4.45;100.00;98275.53;15288388;19;20010;-48
2024/02/27 11:46:47;;;;;;;25.98;20.63;;;;;;;4.46;100.00;98274.56;15289376;19;20041;-48
2024/02/27 11:52:21;;;;;;;33.40;22.90;;;;;;;4.45;100.00;98279.06;15281378;19;20078;-48
2024/02/27 11:57:46;;;;;;;43.90;25.20;;;;;;;4.35;100.00;98287.94;15287518;19;20049;-48
2024/02/27 12:03:10;;;;;;;40.95;25.77;;;;;;;4.31;100.00;98298.03;15291490;19;20088;-49
2024/02/27 12:08:37;;;;;;;37.88;24.27;;;;;;;4.26;100.00;98284.19;15285264;19;20360;-49
2024/02/27 12:14:02;;;;;;;39.95;24.42;;;;;;;4.23;100.00;98285.31;15280950;19;20014;-48
2024/02/27 12:19:28;;;;;;;36.60;24.27;;;;;;;4.23;100.00;98289.81;15285413;19;20018;-48
2024/02/27 12:24:55;;;;;;;33.75;23.25;;;;;;;4.19;100.00;98283.00;15281930;19;20053;-48
2024/02/27 12:30:22;;;;;;;34.22;23.00;;;;;;;4.21;100.00;98286.41;15293155;19;20026;-52
2024/02/27 12:35:46;;;;;;;36.35;24.25;;;;;;;4.15;100.00;98285.91;15277585;19;20014;-52
2024/02/27 12:41:14;;;;;;;40.42;25.92;;;;;;;4.02;100.00;98282.53;15282118;19;20025;-49
2024/02/27 12:46:38;;;;;;;41.25;25.55;;;;;;;4.03;100.00;98278.06;15280953;19;20081;-49
2024/02/27 12:52:03;;;;;;;44.90;27.92;;;;;;;3.99;100.00;98278.31;15281189;19;20035;-49
2024/02/27 12:57:30;;;;;;;47.28;27.27;;;;;;;4.00;100.00;98274.69;15281506;19;20074;-49
2024/02/27 13:02:56;;;;;;;43.65;26.45;;;;;;;4.03;100.00;98281.56;15292649;19;20022;-47
2024/02/27 13:08:20;;;;;;;46.65;28.27;;;;;;;3.99;100.00;98274.81;15289323;19;20482;-48
2024/02/27 13:13:47;;;;;;;39.92;26.60;;;;;;;3.97;100.00;98269.59;15283325;19;20037;-49
2024/02/27 13:19:12;;;;;;;41.55;27.02;;;;;;;3.97;100.00;98274.09;15287112;19;20026;-48
2024/02/27 13:24:38;;;;;;;31.55;23.77;;;;;;;4.00;100.00;98273.81;15285001;19;20010;-49
2024/02/27 13:30:06;;;;;;;35.80;25.52;;;;;;;4.02;100.00;98274.53;15286714;19;20034;-48
2024/02/27 13:35:31;;;;;;;35.50;25.85;;;;;;;3.98;100.00;98276.63;15279009;19;20487;-49
2024/02/27 13:40:56;;;;;;;46.67;29.27;;;;;;;3.90;100.00;98281.72;15283629;19;20042;-48
2024/02/27 13:46:25;;;;;;;43.55;28.42;;;;;;;3.84;100.00;98284.84;15282255;19;20022;-49
2024/02/27 13:51:56;;;;;;;47.15;28.08;;;;;;;3.76;100.00;98296.16;15279380;19;20097;-49
2024/02/27 13:57:22;;;;;;;61.63;34.90;;;;;;;3.73;100.00;98303.50;15282641;19;20353;-49
2024/02/27 14:02:49;;;;;;;67.75;31.05;;;;;;;3.63;100.00;98311.41;15282240;19;20037;-48
2024/02/27 14:08:14;;;;;;;53.05;30.88;;;;;;;3.60;100.00;98317.78;15293805;19;20014;-52
2024/02/27 14:13:40;;;;;;;57.75;30.52;;;;;;;3.50;100.00;98319.47;15293872;19;20554;-48
2024/02/27 14:19:08;;;;;;;56.00;32.13;;;;;;;3.40;100.00;98314.03;15296519;19;20021;-50
2024/02/27 14:24:32;;;;;;;53.95;31.42;;;;;;;3.35;100.00;98306.38;15297992;19;20094;-49
2024/02/27 14:29:57;;;;;;;71.93;30.33;;;;;;;3.30;100.00;98313.88;15300200;19;20007;-48
2024/02/27 14:35:24;;;;;;;81.85;30.50;;;;;;;3.30;100.00;98318.34;15294128;19;20021;-48
2024/02/27 14:40:49;;;;;;;59.17;30.20;;;;;;;3.30;100.00;98323.69;15302157;19;20078;-48
2024/02/27 14:46:14;;;;;;;48.58;29.63;;;;;;;3.31;100.00;98323.56;15301129;19;20082;-49
2024/02/27 14:51:52;;;;;;;47.20;27.45;;;;;;;3.31;100.00;98323.56;15296802;19;20078;-51
2024/02/27 14:57:17;;;;;;;42.50;26.85;;;;;;;3.29;100.00;98332.66;15294422;19;20090;-52
2024/02/27 15:02:42;;;;;;;44.20;27.50;;;;;;;3.27;100.00;98343.41;15041592;19;5001942;-49
2024/02/27 15:08:11;;;;;;;46.90;26.50;;;;;;;3.23;100.00;98344.63;15287419;19;20025;-49
2024/02/27 15:13:35;;;;;;;36.72;23.67;;;;;;;3.31;100.00;98346.69;15040009;19;5002082;-51
2024/02/27 15:19:01;;;;;;;40.85;25.50;;;;;;;3.31;100.00;98358.19;15288081;19;20014;-48
2024/02/27 15:24:28;;;;;;;39.05;24.65;;;;;;;3.30;100.00;98367.13;15294724;19;20026;-49
2024/02/27 15:29:53;;;;;;;44.78;25.00;;;;;;;3.25;100.00;98358.66;15288136;19;20489;-49
2024/02/27 15:35:18;;;;;;;53.53;25.70;;;;;;;3.21;100.00;98346.56;15294852;19;20015;-49
2024/02/27 15:40:45;;;;;;;49.53;25.52;;;;;;;3.16;100.00;98351.34;15291223;19;20020;-48
2024/02/27 15:46:10;;;;;;;69.65;27.35;;;;;;;3.21;100.00;98351.88;15287840;19;20527;-49
2024/02/27 20:39:45;;;;;;;66.65;36.05;;;;;;;3.78;100.00;98568.66;15294317;19;19995;-82
2024/02/27 20:45:12;;;;;;;42.58;27.50;;;;;;;3.91;100.00;98570.41;15300258;19;20028;-82
2024/02/27 20:50:36;;;;;;;31.98;21.27;;;;;;;3.86;100.00;98570.75;15299685;19;20485;-83
2024/02/27 20:56:03;;;;;;;32.35;19.45;;;;;;;3.84;100.00;98575.34;15289124;19;20422;-82
2024/02/27 21:01:29;;;;;;;28.73;18.38;;;;;;;3.82;100.00;98596.78;15291046;19;20348;-82
2024/02/27 21:06:54;;;;;;;29.08;19.60;;;;;;;3.83;100.00;98589.63;15293132;19;20029;-83
2024/02/27 21:12:21;;;;;;;29.52;18.30;;;;;;;3.87;100.00;98598.28;15307367;19;20011;-81
2024/02/27 21:17:47;;;;;;;29.23;18.38;;;;;;;3.84;100.00;98604.66;15294190;19;20374;-81
2024/02/27 21:23:13;;;;;;;35.10;21.55;;;;;;;3.82;100.00;98599.47;15302882;19;20366;-81
2024/02/27 21:28:41;;;;;;;30.38;19.95;;;;;;;3.85;100.00;98606.38;15296799;19;20108;-82
2024/02/27 21:34:05;;;;;;;30.30;19.88;;;;;;;3.83;100.00;98608.28;15295248;19;20029;-83
2024/02/27 21:39:30;;;;;;;29.25;20.48;;;;;;;3.79;100.00;98613.00;15294915;19;20024;-83
2024/02/27 21:45:04;;;;;;;35.70;22.75;;;;;;;3.77;100.00;98616.75;15293623;19;20031;-82
2024/02/27 21:50:30;;;;;;;42.38;24.67;;;;;;;3.76;100.00;98607.94;15288920;19;20042;-83
2024/02/27 21:55:55;;;;;;;44.42;25.98;;;;;;;3.73;100.00;98609.94;15288811;19;20022;-83
2024/02/27 22:01:23;;;;;;;49.00;26.13;;;;;;;3.73;100.00;98609.94;15298434;19;20096;-83
2024/02/27 22:06:47;;;;;;;39.72;24.25;;;;;;;3.77;100.00;98611.44;15289230;19;20018;-82
2024/02/27 22:12:12;;;;;;;41.25;25.48;;;;;;;3.80;100.00;98606.72;15287309;19;20526;-81
2024/02/27 22:17:39;;;;;;;47.33;27.23;;;;;;;3.79;100.00;98602.34;15290518;19;20015;-83
2024/02/27 22:23:04;;;;;;;46.95;25.58;;;;;;;3.82;100.00;98622.59;15287609;19;20090;-83
2024/02/27 22:28:28;;;;;;;51.63;27.15;;;;;;;3.79;100.00;98617.50;15300064;19;20474;-82
2024/02/27 22:33:55;;;;;;;46.97;26.85;;;;;;;3.80;100.00;98619.19;15304077;19;20369;-82
2024/02/27 22:39:20;;;;;;;44.72;25.35;;;;;;;3.82;100.00;98622.59;15300011;19;20026;-82
2024/02/27 22:44:51;;;;;;;40.60;23.92;;;;;;;3.89;100.00;98623.84;15309275;19;20041;-83
2024/02/27 22:50:19;;;;;;;42.53;25.58;;;;;;;3.89;100.00;98631.84;15302051;19;20011;-83
2024/02/27 22:55:44;;;;;;;45.13;25.08;;;;;;;3.87;100.00;98633.75;15304902;19;20006;-83
2024/02/27 23:01:10;;;;;;;40.67;22.90;;;;;;;3.89;100.00;98644.31;15047779;19;5000858;-83
2024/02/27 23:06:37;;;;;;;40.70;24.33;;;;;;;3.84;100.00;98645.50;15298550;19;20029;-84
2024/02/27 23:12:02;;;;;;;45.65;22.70;;;;;;;3.88;100.00;98653.28;15302733;19;20014;-84
2024/02/27 23:17:26;;;;;;;49.60;23.05;;;;;;;3.85;100.00;98644.56;15304121;19;20086;-83
2024/02/27 23:22:53;;;;;;;37.17;20.52;;;;;;;3.89;100.00;98650.50;15304851;19;20408;-83
2024/02/27 23:28:19;;;;;;;42.78;21.88;;;;;;;3.88;100.00;98638.13;15309571;19;20021;-83
2024/02/27 23:33:45;;;;;;;46.53;23.00;;;;;;;3.87;100.00;98636.44;15304966;19;20026;-84
2024/02/27 23:39:12;;;;;;;49.30;22.30;;;;;;;3.87;100.00;98628.44;15299660;19;20011;-82
2024/02/27 23:44:43;;;;;;;50.72;21.50;;;;;;;3.88;100.00;98635.47;15298681;19;20017;-83
2024/02/27 23:50:09;;;;;;;40.47;22.02;;;;;;;3.87;100.00;98625.78;15294252;19;20787;-82
2024/02/27 23:55:36;;;;;;;45.67;23.02;;;;;;;3.84;100.00;98631.31;15299659;19;20010;-82
